Map

Track Data

SID SEASON NUMBER BASIN SUBBASIN NAME ISO_TIME NATURE LAT LON WMO_WIND WMO_PRES WMO_AGENCY TRACK_TYPE DIST2LAND LANDFALL IFLAG USA_AGENCY USA_ATCF_ID USA_LAT USA_LON USA_RECORD USA_STATUS USA_WIND USA_PRES USA_SSHS USA_R34_NE USA_R34_SE USA_R34_SW USA_R34_NW USA_R50_NE USA_R50_SE USA_R50_SW USA_R50_NW USA_R64_NE USA_R64_SE USA_R64_SW USA_R64_NW USA_POCI USA_ROCI USA_RMW USA_EYE TOKYO_LAT TOKYO_LON TOKYO_GRADE TOKYO_WIND TOKYO_PRES TOKYO_R50_DIR TOKYO_R50_LONG TOKYO_R50_SHORT TOKYO_R30_DIR TOKYO_R30_LONG TOKYO_R30_SHORT TOKYO_LAND CMA_LAT CMA_LON CMA_CAT CMA_WIND CMA_PRES HKO_LAT HKO_LON HKO_CAT HKO_WIND HKO_PRES NEWDELHI_LAT NEWDELHI_LON NEWDELHI_GRADE NEWDELHI_WIND NEWDELHI_PRES NEWDELHI_CI NEWDELHI_DP NEWDELHI_POCI REUNION_LAT REUNION_LON REUNION_TYPE REUNION_WIND REUNION_PRES REUNION_TNUM REUNION_CI REUNION_RMW REUNION_R34_NE REUNION_R34_SE REUNION_R34_SW REUNION_R34_NW REUNION_R50_NE REUNION_R50_SE REUNION_R50_SW REUNION_R50_NW REUNION_R64_NE REUNION_R64_SE REUNION_R64_SW REUNION_R64_NW BOM_LAT BOM_LON BOM_TYPE BOM_WIND BOM_PRES BOM_TNUM BOM_CI BOM_RMW BOM_R34_NE BOM_R34_SE BOM_R34_SW BOM_R34_NW BOM_R50_NE BOM_R50_SE BOM_R50_SW BOM_R50_NW BOM_R64_NE BOM_R64_SE BOM_R64_SW BOM_R64_NW BOM_ROCI BOM_POCI BOM_EYE BOM_POS_METHOD BOM_PRES_METHOD NADI_LAT NADI_LON NADI_CAT NADI_WIND NADI_PRES WELLINGTON_LAT WELLINGTON_LON WELLINGTON_WIND WELLINGTON_PRES DS824_LAT DS824_LON DS824_STAGE DS824_WIND DS824_PRES TD9636_LAT TD9636_LON TD9636_STAGE TD9636_WIND TD9636_PRES TD9635_LAT TD9635_LON TD9635_WIND TD9635_PRES TD9635_ROCI NEUMANN_LAT NEUMANN_LON NEUMANN_CLASS NEUMANN_WIND NEUMANN_PRES MLC_LAT MLC_LON MLC_CLASS MLC_WIND MLC_PRES USA_GUST BOM_GUST BOM_GUST_PER REUNION_GUST REUNION_GUST_PER USA_SEAHGT USA_SEARAD_NE USA_SEARAD_SE USA_SEARAD_SW USA_SEARAD_NW STORM_SPEED STORM_DIR
1992290N11253 1992 113 EP MM YOLANDA 1992-10-15 18:00:00 TS 10.8000 -107.200 25 1010 hurdat_epa main 929 929 O_____________ hurdat_epa EP261992 10.8000 -107.200 TD 25 1010 -1 20 274
1992290N11253 1992 113 EP MM YOLANDA 1992-10-15 21:00:00 TS 10.8682 -108.212 main 970 970 P_____________ EP261992 10.8682 -108.212 TD 27 1009 -1 20 273
1992290N11253 1992 113 EP MM YOLANDA 1992-10-16 00:00:00 TS 10.9000 -109.200 30 1009 hurdat_epa main 1030 1030 O_____________ hurdat_epa EP261992 10.9000 -109.200 TD 30 1009 -1 19 270
1992290N11253 1992 113 EP MM YOLANDA 1992-10-16 03:00:00 TS 10.8846 -110.150 main 1094 1094 P_____________ EP261992 10.8846 -110.150 TD 32 1007 -1 19 270
1992290N11253 1992 113 EP MM YOLANDA 1992-10-16 06:00:00 TS 10.9000 -111.100 35 1005 hurdat_epa main 1149 1149 O_____________ hurdat_epa EP261992 10.9000 -111.100 TS 35 1005 0 19 274
1992290N11253 1992 113 EP MM YOLANDA 1992-10-16 09:00:00 TS 11.0273 -112.100 main 1206 1206 P_____________ EP261992 11.0273 -112.100 TS 40 1002 0 20 279
1992290N11253 1992 113 EP MM YOLANDA 1992-10-16 12:00:00 TS 11.2000 -113.100 45 1000 hurdat_epa main 1262 1262 O_____________ hurdat_epa EP261992 11.2000 -113.100 TS 45 1000 0 19 279
1992290N11253 1992 113 EP MM YOLANDA 1992-10-16 15:00:00 TS 11.3346 -114.058 main 1331 1330 P_____________ EP261992 11.3346 -114.058 TS 47 999 0 19 279
1992290N11253 1992 113 EP MM YOLANDA 1992-10-16 18:00:00 TS 11.5000 -115.000 50 998 hurdat_epa main 1381 1381 O_____________ hurdat_epa EP261992 11.5000 -115.000 TS 50 998 0 19 282
1992290N11253 1992 113 EP MM YOLANDA 1992-10-16 21:00:00 TS 11.7347 -115.950 main 1405 1400 P_____________ EP261992 11.7347 -115.950 TS 50 997 0 19 285
1992290N11253 1992 113 EP MM YOLANDA 1992-10-17 00:00:00 TS 12.0000 -116.900 50 997 hurdat_epa main 1421 1421 O_____________ hurdat_epa EP261992 12.0000 -116.900 TS 50 997 0 19 285
1992290N11253 1992 113 EP MM YOLANDA 1992-10-17 03:00:00 TS 12.2497 -117.850 main 1460 1450 P_____________ EP261992 12.2497 -117.850 TS 50 996 0 19 285
1992290N11253 1992 113 EP MM YOLANDA 1992-10-17 06:00:00 TS 12.5000 -118.800 50 996 hurdat_epa main 1489 1489 O_____________ hurdat_epa EP261992 12.5000 -118.800 TS 50 996 0 19 285
1992290N11253 1992 113 EP MM YOLANDA 1992-10-17 09:00:00 TS 12.7422 -119.750 main 1541 1532 P_____________ EP261992 12.7422 -119.750 TS 50 996 0 19 285
1992290N11253 1992 113 EP MM YOLANDA 1992-10-17 12:00:00 TS 13.0000 -120.700 50 997 hurdat_epa main 1582 1582 O_____________ hurdat_epa EP261992 13.0000 -120.700 TS 50 997 0 19 287
1992290N11253 1992 113 EP MM YOLANDA 1992-10-17 15:00:00 TS 13.2921 -121.650 main 1624 1624 P_____________ EP261992 13.2921 -121.650 TS 50 997 0 19 288
1992290N11253 1992 113 EP MM YOLANDA 1992-10-17 18:00:00 TS 13.6000 -122.600 50 998 hurdat_epa main 1659 1659 O_____________ hurdat_epa EP261992 13.6000 -122.600 TS 50 998 0 20 289
1992290N11253 1992 113 EP MM YOLANDA 1992-10-17 21:00:00 TS 13.9147 -123.558 main 1705 1704 P_____________ EP261992 13.9147 -123.558 TS 47 998 0 19 288
1992290N11253 1992 113 EP MM YOLANDA 1992-10-18 00:00:00 TS 14.2000 -124.500 45 999 hurdat_epa main 1749 1749 O_____________ hurdat_epa EP261992 14.2000 -124.500 TS 45 999 0 19 285
1992290N11253 1992 113 EP MM YOLANDA 1992-10-18 03:00:00 TS 14.4072 -125.423 main 1804 1804 P_____________ EP261992 14.4072 -125.423 TS 45 1000 0 18 283
1992290N11253 1992 113 EP MM YOLANDA 1992-10-18 06:00:00 TS 14.6000 -126.300 45 1001 hurdat_epa main 1863 1863 O_____________ hurdat_epa EP261992 14.6000 -126.300 TS 45 1001 0 17 284
1992290N11253 1992 113 EP MM YOLANDA 1992-10-18 09:00:00 TS 14.8348 -127.138 main 1908 1906 P_____________ EP261992 14.8348 -127.138 TS 45 1000 0 16 288
1992290N11253 1992 113 EP MM YOLANDA 1992-10-18 12:00:00 TS 15.1000 -127.900 45 1000 hurdat_epa main 1937 1937 O_____________ hurdat_epa EP261992 15.1000 -127.900 TS 45 1000 0 15 292
1992290N11253 1992 113 EP MM YOLANDA 1992-10-18 15:00:00 TS 15.3997 -128.588 main 1963 1962 P_____________ EP261992 15.3997 -128.588 TS 50 997 0 14 296
1992290N11253 1992 113 EP MM YOLANDA 1992-10-18 18:00:00 TS 15.7000 -129.200 55 994 hurdat_epa main 1984 1984 O_____________ hurdat_epa EP261992 15.7000 -129.200 TS 55 994 0 13 296
1992290N11253 1992 113 EP MM YOLANDA 1992-10-18 21:00:00 TS 15.9497 -129.765 main 2014 2007 P_____________ EP261992 15.9497 -129.765 TS 55 993 0 12 295
1992290N11253 1992 113 EP MM YOLANDA 1992-10-19 00:00:00 TS 16.2000 -130.300 55 993 hurdat_epa main 2031 2031 O_____________ hurdat_epa EP261992 16.2000 -130.300 TS 55 993 0 12 297
1992290N11253 1992 113 EP MM YOLANDA 1992-10-19 03:00:00 TS 16.4849 -130.858 main 2057 2057 P_____________ EP261992 16.4849 -130.858 TS 55 993 0 12 300
1992290N11253 1992 113 EP MM YOLANDA 1992-10-19 06:00:00 TS 16.8000 -131.400 55 993 hurdat_epa main 2077 2077 O_____________ hurdat_epa EP261992 16.8000 -131.400 TS 55 993 0 12 303
1992290N11253 1992 113 EP MM YOLANDA 1992-10-19 09:00:00 TS 17.1424 -131.915 main 2098 2091 P_____________ EP261992 17.1424 -131.915 TS 55 993 0 12 306
1992290N11253 1992 113 EP MM YOLANDA 1992-10-19 12:00:00 TS 17.5000 -132.400 55 994 hurdat_epa main 2114 2114 O_____________ hurdat_epa EP261992 17.5000 -132.400 TS 55 994 0 12 308
1992290N11253 1992 113 EP MM YOLANDA 1992-10-19 15:00:00 TS 17.8499 -132.865 main 2138 2132 P_____________ EP261992 17.8499 -132.865 TS 50 997 0 11 309
1992290N11253 1992 113 EP MM YOLANDA 1992-10-19 18:00:00 TS 18.2000 -133.300 45 1000 hurdat_epa main 2149 2149 O_____________ hurdat_epa EP261992 18.2000 -133.300 TS 45 1000 0 11 311
1992290N11253 1992 113 EP MM YOLANDA 1992-10-19 21:00:00 TS 18.5800 -133.737 main 2160 2160 P_____________ EP261992 18.5800 -133.737 TS 42 1000 0 10 313
1992290N11253 1992 113 EP MM YOLANDA 1992-10-20 00:00:00 TS 18.9000 -134.100 40 1001 hurdat_epa main 2173 2150 O_____________ hurdat_epa EP261992 18.9000 -134.100 TS 40 1001 0 8 312
1992290N11253 1992 113 EP MM YOLANDA 1992-10-20 03:00:00 TS 19.0949 -134.345 main 2150 2128 P_____________ EP261992 19.0949 -134.345 TS 40 1001 0 5 309
1992290N11253 1992 113 EP MM YOLANDA 1992-10-20 06:00:00 TS 19.2000 -134.500 40 1002 hurdat_epa main 2128 2117 O_____________ hurdat_epa EP261992 19.2000 -134.500 TS 40 1002 0 3 307
1992290N11253 1992 113 EP MM YOLANDA 1992-10-20 09:00:00 TS 19.2799 -134.608 main 2117 2107 P_____________ EP261992 19.2799 -134.608 TS 37 1003 0 2 298
1992290N11253 1992 113 EP MM YOLANDA 1992-10-20 12:00:00 TS 19.3000 -134.700 35 1005 hurdat_epa main 2107 2096 O_____________ hurdat_epa EP261992 19.3000 -134.700 TS 35 1005 0 2 268
1992290N11253 1992 113 EP MM YOLANDA 1992-10-20 15:00:00 TS 19.2725 -134.850 main 2086 2076 P_____________ EP261992 19.2725 -134.850 TS 32 1007 -1 3 250
1992290N11253 1992 113 EP MM YOLANDA 1992-10-20 18:00:00 TS 19.2000 -135.000 30 1009 hurdat_epa main 2076 2065 O_____________ hurdat_epa EP261992 19.2000 -135.000 TD 30 1009 -1 3 240
1992290N11253 1992 113 EP MM YOLANDA 1992-10-20 21:00:00 TS 19.1449 -135.085 main 2066 2056 P_____________ EP261992 19.1449 -135.085 TD 30 1009 -1 3 224
1992290N11253 1992 113 EP MM YOLANDA 1992-10-21 00:00:00 TS 19.0000 -135.200 30 1009 hurdat_epa main 2057 2038 O_____________ hurdat_epa EP261992 19.0000 -135.200 TD 30 1009 -1 5 216
1992290N11253 1992 113 EP MM YOLANDA 1992-10-21 03:00:00 TS 18.7100 -135.420 main 2039 2011 P_____________ EP261992 18.7100 -135.420 TD 30 1009 -1 8 214
1992290N11253 1992 113 EP MM YOLANDA 1992-10-21 06:00:00 TS 18.3000 -135.700 30 1009 hurdat_epa main 2012 1996 O_____________ hurdat_epa EP261992 18.3000 -135.700 TD 30 1009 -1 10 210
1992290N11253 1992 113 EP MM YOLANDA 1992-10-21 09:00:00 TS 17.8073 -135.962 main 1988 1964 P_____________ EP261992 17.8073 -135.962 TD 30 1009 -1 12 210
1992290N11253 1992 113 EP MM YOLANDA 1992-10-21 12:00:00 TS 17.3000 -136.300 30 1009 hurdat_epa main 1966 1933 O_____________ hurdat_epa EP261992 17.3000 -136.300 TD 30 1009 -1 12 218
1992290N11253 1992 113 EP MM YOLANDA 1992-10-21 15:00:00 TS 16.8400 -136.755 main 1925 1880 P_____________ EP261992 16.8400 -136.755 TD 27 1009 -1 13 230
1992290N11253 1992 113 EP MM YOLANDA 1992-10-21 18:00:00 TS 16.5000 -137.300 25 1010 hurdat_epa main 1880 1830 O_____________ hurdat_epa EP261992 16.5000 -137.300 TD 25 1010 -1 12 245
1992290N11253 1992 113 EP MM YOLANDA 1992-10-21 21:00:00 TS 16.3471 -137.847 main 1833 1760 P_____________ EP261992 16.3471 -137.847 TD 25 1010 -1 12 260
1992290N11253 1992 113 EP MM YOLANDA 1992-10-22 00:00:00 TS 16.3000 -138.500 25 1010 hurdat_epa main 1760 1681 O_____________ hurdat_epa EP261992 16.3000 -138.500 TD 25 1010 -1 14 265
1992290N11253 1992 113 EP MM YOLANDA 1992-10-22 03:00:00 TS 16.2352 -139.320 main 1681 1588 P_____________ EP261992 16.2352 -139.320 TD 25 1010 -1 16 266
1992290N11253 1992 113 EP CP YOLANDA 1992-10-22 06:00:00 TS 16.2000 -140.200 25 1011 hurdat_epa main 1588 1506 O_____________ hurdat_epa EP261992 16.2000 -140.200 TD 25 1011 -1 16 269
1992290N11253 1992 113 EP CP YOLANDA 1992-10-22 09:00:00 TS 16.1950 -141.017 main 1506 1424 P_____________ EP261992 16.1928 -141.022 TD 25 1011 -1 15 270
1992290N11253 1992 113 EP CP YOLANDA 1992-10-22 12:00:00 TS 16.2000 -141.800 25 1011 hurdat_epa main 1424 O_____________ hurdat_epa EP261992 16.2000 -141.800 TD 25 1011 -1 15 270

About IBTrACS Database

This database is a web-friendly format of International Best Track Archive for Climate Stewardship (IBTrACS), a global best track data archive curated by NOAA dating back to 1842.

Updated: 2021-12-03